Time;durP1;ratioP1;P1;durP2;ratioP2;P2;SDS_P1;SDS_P2;PMS_P1;PMS_P2;Temp;Humidity;BMP_temperature;BMP_pressure;BME280_temperature;BME280_humidity;BME280_pressure;Samples;Min_cycle;Max_cycle;Signal;HPM_P1;HPM_P2
2022/02/28 00:01:25;;;;;;;12.83;5.83;;;;;;;-145.69;76.39;73898.47;5074356;28;20194;-77
2022/02/28 00:03:52;;;;;;;13.63;6.17;;;;;;;-145.69;77.54;73882.53;5072839;28;20201;-77
2022/02/28 00:06:22;;;;;;;14.27;5.80;;;;;;;-145.69;76.58;73894.47;5072665;28;20657;-77
2022/02/28 00:08:50;;;;;;;12.10;6.60;;;;;;;-145.69;77.33;73898.47;5073105;28;20262;-76
2022/02/28 00:11:19;;;;;;;13.37;5.83;;;;;;;-145.69;78.38;73926.34;5072724;28;20215;-77
2022/02/28 00:13:55;;;;;;;13.57;6.27;;;;;;;-145.69;79.65;73954.22;5072781;28;20658;-77
2022/02/28 00:16:24;;;;;;;16.43;6.07;;;;;;;-145.69;80.14;73952.22;5072711;28;20584;-77
2022/02/28 00:18:53;;;;;;;15.47;6.43;;;;;;;-145.69;80.69;73942.25;5072200;28;20234;-77
2022/02/28 00:21:22;;;;;;;11.80;6.00;;;;;;;-145.69;80.57;73942.25;5072960;28;20203;-77
2022/02/28 00:23:52;;;;;;;13.67;6.67;;;;;;;-145.69;79.21;73928.31;5092155;28;20662;-77
2022/02/28 00:26:23;;;;;;;12.13;6.13;;;;;;;-145.69;80.43;73940.28;5093011;28;20237;-76
2022/02/28 00:28:51;;;;;;;15.33;7.00;;;;;;;-145.69;81.65;73954.22;5092854;28;20225;-77
2022/02/28 00:31:19;;;;;;;14.23;6.00;;;;;;;-145.69;81.28;73922.34;5092795;28;20206;-77
2022/02/28 00:33:47;;;;;;;14.47;6.57;;;;;;;-145.69;80.44;73912.41;5092886;28;20227;-77
2022/02/28 00:36:16;;;;;;;13.47;6.00;;;;;;;-145.69;81.42;73938.28;5092905;28;20212;-77
2022/02/28 00:38:45;;;;;;;12.93;6.43;;;;;;;-145.69;81.48;73922.34;5092901;28;20201;-77
2022/02/28 00:41:14;;;;;;;12.93;6.40;;;;;;;-145.69;80.44;73894.47;5092014;28;20198;-77
2022/02/28 00:43:45;;;;;;;16.70;6.70;;;;;;;-145.69;80.70;73904.44;5092682;28;20198;-77
2022/02/28 00:46:11;;;;;;;15.03;6.27;;;;;;;-145.69;81.42;73938.28;5092948;28;20198;-77
2022/02/28 00:48:38;;;;;;;18.03;7.30;;;;;;;-145.69;82.42;73958.19;5092750;28;20225;-77
2022/02/28 00:51:06;;;;;;;16.43;6.67;;;;;;;-145.69;82.35;73950.22;5092813;28;20198;-77
2022/02/28 00:53:44;;;;;;;14.83;6.70;;;;;;;-145.69;82.59;73954.22;5100616;28;20225;-77
2022/02/28 00:56:11;;;;;;;13.60;6.30;;;;;;;-145.69;82.26;73950.22;5113085;28;20250;-78
2022/02/28 00:58:37;;;;;;;14.73;6.68;;;;;;;-145.69;82.06;73948.25;5113092;28;20431;-77
2022/02/28 01:01:05;;;;;;;15.40;6.10;;;;;;;-145.69;82.46;73958.19;5113172;28;20197;-77
2022/02/28 01:03:32;;;;;;;17.87;6.27;;;;;;;-145.69;82.22;73946.25;5113067;28;20262;-77
2022/02/28 01:05:58;;;;;;;16.47;6.20;;;;;;;-145.69;81.55;73944.25;5113161;28;20218;-78
2022/02/28 01:08:25;;;;;;;13.03;6.53;;;;;;;-145.69;80.74;73930.31;5112847;28;20229;-77
2022/02/28 01:10:51;;;;;;;16.73;6.50;;;;;;;-145.69;81.68;73952.22;5113185;28;20206;-77
2022/02/28 01:13:18;;;;;;;13.60;6.40;;;;;;;-145.69;81.96;73950.22;5113136;28;20197;-77
2022/02/28 01:15:45;;;;;;;19.50;6.97;;;;;;;-145.69;81.55;73946.25;5113207;28;20204;-77
2022/02/28 01:18:13;;;;;;;16.50;7.07;;;;;;;-145.69;82.38;73954.22;5116147;28;20226;-77
2022/02/28 01:20:39;;;;;;;17.23;6.67;;;;;;;-145.69;82.01;73958.19;5116812;28;20201;-77
2022/02/28 01:23:06;;;;;;;12.93;6.67;;;;;;;-145.69;82.73;73966.16;5103437;28;20194;-77
2022/02/28 01:25:32;;;;;;;15.53;6.60;;;;;;;-145.69;84.29;73978.09;5096357;28;20194;-77
2022/02/28 01:27:59;;;;;;;15.17;6.67;;;;;;;-145.69;85.31;74013.94;5096237;28;20212;-77
2022/02/28 01:30:26;;;;;;;18.97;7.23;;;;;;;-145.69;86.32;74017.94;5096303;28;20226;-77
2022/02/28 01:32:52;;;;;;;14.67;6.67;;;;;;;-145.69;85.63;74013.94;5096191;28;20202;-77
2022/02/28 01:35:20;;;;;;;15.67;7.13;;;;;;;-145.69;86.27;74011.97;5095933;28;20210;-76
2022/02/28 01:37:47;;;;;;;16.50;7.27;;;;;;;-145.69;85.98;74009.97;5096303;28;20202;-77
2022/02/28 01:40:15;;;;;;;18.07;6.73;;;;;;;-145.69;86.03;73998.03;5096054;28;20560;-77
2022/02/28 01:42:42;;;;;;;16.13;6.77;;;;;;;-145.69;85.45;73976.13;5096029;28;20213;-76
2022/02/28 01:45:12;;;;;;;16.27;6.80;;;;;;;-145.69;84.47;73978.09;5095954;28;20205;-77
2022/02/28 01:47:38;;;;;;;18.03;6.90;;;;;;;-145.69;84.97;73978.09;5095746;28;20217;-77
2022/02/28 01:50:06;;;;;;;14.07;7.27;;;;;;;-145.69;85.31;73988.06;5095573;28;20230;-76
2022/02/28 01:52:34;;;;;;;14.27;6.83;;;;;;;-145.69;84.55;73970.16;5095942;28;20255;-77
2022/02/28 01:55:01;;;;;;;18.30;7.00;;;;;;;-145.69;84.45;73950.22;5075326;28;20657;-76
2022/02/28 01:57:28;;;;;;;14.90;6.70;;;;;;;-145.69;83.64;73958.19;5075506;28;20207;-77
2022/02/28 01:59:54;;;;;;;17.07;6.87;;;;;;;-145.69;83.01;73952.22;5075464;28;20213;-77
2022/02/28 02:02:21;;;;;;;19.20;8.63;;;;;;;-145.69;83.70;73974.13;5074388;28;20438;-78
2022/02/28 02:04:49;;;;;;;17.80;7.47;;;;;;;-145.69;84.89;74000.00;5075614;28;20449;-77
2022/02/28 02:07:16;;;;;;;16.63;6.77;;;;;;;-145.69;84.87;74004.00;5077634;28;20285;-77
2022/02/28 02:09:44;;;;;;;17.17;6.77;;;;;;;-145.69;83.31;73982.09;5075129;28;20705;-77
2022/02/28 02:12:11;;;;;;;23.10;7.17;;;;;;;-145.69;84.99;74005.97;5075272;28;20201;-76
2022/02/28 02:14:37;;;;;;;18.57;6.43;;;;;;;-145.69;84.80;73990.06;5075235;28;20203;-77
2022/02/28 02:17:04;;;;;;;16.60;6.93;;;;;;;-145.69;84.28;73996.03;5074808;28;20198;-77
2022/02/28 02:19:32;;;;;;;15.73;6.47;;;;;;;-145.69;84.21;73986.06;5075419;28;20206;-76
2022/02/28 02:22:00;;;;;;;14.13;6.63;;;;;;;-145.69;84.40;73992.03;5086680;28;20199;-77
2022/02/28 02:24:26;;;;;;;13.37;5.90;;;;;;;-145.69;85.66;74004.00;5115577;28;20193;-77
2022/02/28 02:26:53;;;;;;;12.37;5.87;;;;;;;-145.69;85.45;73986.06;5115536;28;20206;-77
2022/02/28 02:29:19;;;;;;;20.67;7.47;;;;;;;-145.69;83.93;73956.19;5115108;28;20302;-77
2022/02/28 02:31:46;;;;;;;15.37;6.77;;;;;;;-145.69;82.60;73944.25;5109869;28;20186;-77
2022/02/28 02:34:12;;;;;;;14.83;6.47;;;;;;;-145.69;84.54;73976.13;5074901;28;20195;-76
2022/02/28 02:36:40;;;;;;;16.23;7.17;;;;;;;-145.69;84.04;73978.09;5074842;28;20217;-77
2022/02/28 02:39:08;;;;;;;12.83;5.80;;;;;;;-145.69;85.58;74013.94;5074640;28;20199;-77
2022/02/28 02:41:35;;;;;;;13.77;6.27;;;;;;;-145.69;86.39;74002.00;5074606;28;20203;-77
2022/02/28 02:44:01;;;;;;;14.40;6.20;;;;;;;-145.69;85.14;73990.06;5074594;28;20206;-77
2022/02/28 02:46:27;;;;;;;19.63;6.40;;;;;;;-145.69;85.54;73984.09;5074539;28;20218;-77
2022/02/28 02:48:54;;;;;;;16.67;6.97;;;;;;;-145.69;85.93;74013.94;5074496;28;20582;-77
2022/02/28 02:51:21;;;;;;;16.57;6.37;;;;;;;-145.69;87.24;74043.81;5074631;28;20210;-77
2022/02/28 02:53:47;;;;;;;15.33;6.30;;;;;;;-145.69;88.94;74089.63;5114324;28;20255;-77
2022/02/28 02:56:15;;;;;;;14.83;6.27;;;;;;;-145.69;91.03;74109.53;5114980;28;20274;-77
2022/02/28 02:58:42;;;;;;;14.20;5.83;;;;;;;-145.69;92.58;74139.41;5114901;28;20263;-77
2022/02/28 03:01:08;;;;;;;17.30;6.47;;;;;;;-145.69;92.78;74161.28;5115098;27;20197;-77
2022/02/28 03:03:35;;;;;;;11.97;5.47;;;;;;;-145.69;94.56;74181.22;5114919;28;20541;-77
2022/02/28 03:06:02;;;;;;;13.80;6.43;;;;;;;-145.69;95.46;74213.06;5114837;28;20208;-77
2022/02/28 03:08:29;;;;;;;15.97;5.93;;;;;;;-145.69;97.39;74217.06;5114665;28;20236;-77
2022/02/28 03:10:55;;;;;;;13.47;6.53;;;;;;;-145.69;97.85;74221.03;5114543;28;20259;-76
2022/02/28 03:13:23;;;;;;;16.97;6.60;;;;;;;-145.69;99.13;74209.09;5114481;28;20700;-77
2022/02/28 03:15:49;;;;;;;16.03;6.53;;;;;;;-145.69;97.28;74229.00;5114638;28;20205;-76
2022/02/28 03:18:16;;;;;;;17.03;6.60;;;;;;;-145.69;98.46;74225.03;5112590;28;20226;-77
2022/02/28 03:20:42;;;;;;;13.87;6.20;;;;;;;-145.69;98.86;74244.94;5114507;28;20198;-77
2022/02/28 03:23:09;;;;;;;13.47;6.33;;;;;;;-145.69;99.32;74262.84;5114185;28;20647;-77
2022/02/28 03:25:35;;;;;;;13.77;5.93;;;;;;;-145.69;100.00;74276.78;5114267;28;20193;-77
2022/02/28 03:28:02;;;;;;;18.83;6.10;;;;;;;-145.69;100.00;74298.69;5114062;28;20598;-78
2022/02/28 03:30:30;;;;;;;13.93;6.37;;;;;;;-145.69;100.00;74316.63;5114381;28;20229;-77
2022/02/28 03:32:56;;;;;;;13.13;6.27;;;;;;;-145.69;100.00;74326.56;5114190;28;20231;-77
2022/02/28 03:35:23;;;;;;;23.30;7.07;;;;;;;-145.69;100.00;74344.50;5114109;28;20648;-77
2022/02/28 03:37:50;;;;;;;15.33;7.07;;;;;;;-145.69;100.00;74326.56;5114122;28;20215;-77
2022/02/28 03:40:16;;;;;;;19.67;6.43;;;;;;;-145.69;100.00;74340.50;5113279;28;20205;-77
2022/02/28 03:42:43;;;;;;;15.30;6.23;;;;;;;-145.69;100.00;74330.56;5114328;28;20258;-77
2022/02/28 03:45:10;;;;;;;19.33;7.33;;;;;;;-145.69;100.00;74324.59;5114160;28;20197;-77
2022/02/28 03:47:38;;;;;;;17.93;7.07;;;;;;;-145.69;100.00;74336.53;5108299;27;20203;-77
2022/02/28 03:50:05;;;;;;;20.13;7.20;;;;;;;-145.69;100.00;74344.50;5093386;28;20303;-77
2022/02/28 03:52:32;;;;;;;19.37;6.57;;;;;;;-145.69;100.00;74358.44;5093566;28;20201;-77
2022/02/28 03:54:58;;;;;;;15.70;6.77;;;;;;;-145.69;100.00;74356.44;5093280;28;20194;-77
2022/02/28 03:57:25;;;;;;;14.53;6.07;;;;;;;-145.69;100.00;74370.38;5087714;28;20191;-78
2022/02/28 03:59:51;;;;;;;16.83;6.67;;;;;;;-145.69;100.00;74388.31;5073059;28;20198;-77
2022/02/28 04:02:18;;;;;;;15.63;6.53;;;;;;;-145.69;100.00;74396.28;5073193;28;20198;-77
2022/02/28 04:04:45;;;;;;;15.13;6.57;;;;;;;-145.69;100.00;74392.28;5073000;28;20203;-78
2022/02/28 04:07:12;;;;;;;12.47;5.87;;;;;;;-145.69;100.00;74378.34;5072992;28;20225;-78
2022/02/28 04:09:39;;;;;;;20.00;6.70;;;;;;;-145.69;100.00;74396.28;5072865;28;20719;-77
2022/02/28 04:12:07;;;;;;;17.43;6.43;;;;;;;-145.69;100.00;74396.28;5072931;28;20653;-77
2022/02/28 04:14:34;;;;;;;17.13;6.23;;;;;;;-145.69;100.00;74402.25;5073068;28;20612;-78
2022/02/28 04:17:00;;;;;;;23.30;7.63;;;;;;;-145.69;100.00;74396.28;5078778;28;20282;-78
2022/02/28 04:19:27;;;;;;;23.57;7.80;;;;;;;-145.69;100.00;74376.34;5113219;28;20201;-77
2022/02/28 04:21:54;;;;;;;17.43;6.40;;;;;;;-145.69;100.00;74392.28;5113133;28;20228;-77
2022/02/28 04:24:21;;;;;;;15.97;6.73;;;;;;;-145.69;100.00;74412.19;5113607;28;20208;-77
2022/02/28 04:26:47;;;;;;;15.67;5.93;;;;;;;-145.69;100.00;74414.19;5113190;28;20721;-78
2022/02/28 04:29:14;;;;;;;32.77;7.10;;;;;;;-145.69;100.00;74388.31;5113257;28;20197;-77
2022/02/28 04:31:41;;;;;;;17.73;6.50;;;;;;;-145.69;100.00;74390.28;5113435;28;20232;-77
2022/02/28 04:34:08;;;;;;;17.33;7.27;;;;;;;-145.69;100.00;74388.31;5113253;28;20204;-77
2022/02/28 04:36:35;;;;;;;21.63;6.80;;;;;;;-145.69;100.00;74394.28;5113104;28;20201;-77
2022/02/28 04:39:03;;;;;;;19.27;5.90;;;;;;;-145.69;100.00;74414.19;5113335;28;20197;-77
2022/02/28 04:41:30;;;;;;;17.17;6.00;;;;;;;-145.69;100.00;74420.16;5113358;28;20254;-77
2022/02/28 04:43:56;;;;;;;17.13;6.53;;;;;;;-145.69;100.00;74428.13;5113198;28;20201;-77
2022/02/28 04:46:23;;;;;;;18.23;6.60;;;;;;;-145.69;100.00;74426.13;5113215;28;20197;-78
2022/02/28 04:48:49;;;;;;;24.70;6.53;;;;;;;-145.69;100.00;74436.09;5095483;28;20205;-77
2022/02/28 04:51:16;;;;;;;17.63;6.00;;;;;;;-145.69;100.00;74410.22;5094472;28;20228;-77
2022/02/28 04:53:43;;;;;;;19.60;6.33;;;;;;;-145.69;100.00;74428.13;5097056;28;20559;-77
2022/02/28 04:56:11;;;;;;;13.70;6.47;;;;;;;-145.69;100.00;74436.09;5097003;28;20190;-77
2022/02/28 04:58:37;;;;;;;14.67;6.57;;;;;;;-145.69;100.00;74426.13;5096943;28;20198;-77
2022/02/28 05:01:04;;;;;;;18.73;7.27;;;;;;;-145.69;100.00;74356.44;5096718;28;20653;-77
2022/02/28 05:03:30;;;;;;;16.73;6.60;;;;;;;-145.69;100.00;74344.50;5096716;28;20194;-78
2022/02/28 05:05:56;;;;;;;14.37;6.23;;;;;;;-145.69;100.00;74364.41;5096580;28;20194;-77
2022/02/28 05:08:23;;;;;;;16.77;6.53;;;;;;;-145.69;100.00;74372.38;5096771;28;20201;-77
2022/02/28 05:10:50;;;;;;;13.50;6.07;;;;;;;-145.69;100.00;74388.31;5096596;28;20316;-77
2022/02/28 05:13:17;;;;;;;18.80;7.23;;;;;;;-145.69;100.00;74380.34;5096551;28;20209;-77
2022/02/28 05:15:44;;;;;;;15.20;5.77;;;;;;;-145.69;100.00;74390.28;5096451;28;20202;-77
2022/02/28 05:18:10;;;;;;;21.35;8.85;;;;;;;-145.69;100.00;74404.22;5106769;28;20925;-77
2022/02/28 05:20:37;;;;;;;15.30;7.40;;;;;;;-145.69;100.00;74428.13;5116654;28;20648;-77
2022/02/28 05:23:03;;;;;;;18.97;6.93;;;;;;;-145.69;100.00;74452.03;5116868;28;20614;-77
2022/02/28 05:25:30;;;;;;;16.93;7.80;;;;;;;-145.69;100.00;74452.03;5116569;28;20678;-77
2022/02/28 05:27:56;;;;;;;20.90;8.07;;;;;;;-145.69;100.00;74444.06;5116703;28;20223;-77
2022/02/28 05:30:24;;;;;;;15.97;6.83;;;;;;;-145.69;100.00;74430.13;5116536;28;20229;-78
2022/02/28 05:32:50;;;;;;;18.10;6.70;;;;;;;-145.69;100.00;74412.19;5116362;28;20204;-77
2022/02/28 05:35:17;;;;;;;14.37;7.23;;;;;;;-145.69;100.00;74406.22;5116686;28;20212;-77
2022/02/28 05:37:43;;;;;;;19.77;6.60;;;;;;;-145.69;100.00;74412.19;5116439;27;20197;-77
2022/02/28 05:40:12;;;;;;;16.83;6.90;;;;;;;-145.69;100.00;74412.19;5115668;28;20194;-77
2022/02/28 05:42:39;;;;;;;18.27;6.50;;;;;;;-145.69;100.00;74438.09;5115879;28;20197;-77
2022/02/28 05:45:07;;;;;;;16.97;6.83;;;;;;;-145.69;100.00;74460.00;5115871;28;20246;-78
2022/02/28 05:47:35;;;;;;;19.63;7.40;;;;;;;-145.69;100.00;74467.97;5116157;28;20208;-78
2022/02/28 05:50:02;;;;;;;19.57;7.93;;;;;;;-145.69;100.00;74418.19;5116149;28;20229;-77
2022/02/28 05:52:29;;;;;;;18.57;7.13;;;;;;;-145.69;100.00;74398.25;5116303;28;20263;-77
2022/02/28 05:54:56;;;;;;;23.63;9.02;;;;;;;-145.69;100.00;74398.25;5115889;28;20435;-77
2022/02/28 05:57:22;;;;;;;21.10;8.77;;;;;;;-145.69;100.00;74396.28;5116081;28;20278;-77
2022/02/28 05:59:49;;;;;;;23.40;8.13;;;;;;;-145.69;100.00;74376.34;5115733;28;20208;-77
2022/02/28 06:02:15;;;;;;;21.43;8.53;;;;;;;-145.69;100.00;74392.28;5115103;28;20226;-77
2022/02/28 06:04:43;;;;;;;17.43;7.47;;;;;;;-145.69;100.00;74404.22;5115951;28;20205;-77
2022/02/28 06:07:09;;;;;;;17.47;7.47;;;;;;;-145.69;100.00;74424.16;5097557;28;20198;-78
2022/02/28 06:09:39;;;;;;;18.83;6.90;;;;;;;-145.69;100.00;74454.03;5105028;28;20193;-78
2022/02/28 06:12:07;;;;;;;15.87;7.80;;;;;;;-145.69;100.00;74467.97;5115796;28;20193;-78
2022/02/28 06:14:33;;;;;;;17.27;7.63;;;;;;;-145.69;100.00;74463.97;5115478;28;20197;-78
2022/02/28 06:17:00;;;;;;;21.87;7.60;;;;;;;-145.69;100.00;74460.00;5115588;28;20205;-78
2022/02/28 06:19:26;;;;;;;16.43;6.93;;;;;;;-145.69;100.00;74461.97;5115486;27;20193;-77
2022/02/28 06:21:54;;;;;;;18.93;8.40;;;;;;;-145.69;100.00;74475.94;5115673;28;20197;-78
2022/02/28 06:24:20;;;;;;;21.27;7.87;;;;;;;-145.69;100.00;74479.91;5115689;28;20201;-78
2022/02/28 06:26:47;;;;;;;18.17;7.07;;;;;;;-145.69;100.00;74489.88;5115582;28;20201;-78
2022/02/28 06:29:13;;;;;;;17.73;7.90;;;;;;;-145.69;100.00;74489.88;5115735;27;20206;-78
2022/02/28 06:31:43;;;;;;;19.30;8.40;;;;;;;-145.69;100.00;74493.84;5115418;28;20714;-78
2022/02/28 06:34:09;;;;;;;19.57;8.80;;;;;;;-145.69;100.00;74471.94;5115576;28;20228;-78
2022/02/28 06:36:36;;;;;;;23.53;9.27;;;;;;;-145.69;100.00;74469.94;5115497;28;20205;-77
2022/02/28 06:39:05;;;;;;;23.13;8.27;;;;;;;-145.69;100.00;74483.88;5102277;28;20684;-78
2022/02/28 06:41:31;;;;;;;25.83;9.23;;;;;;;-145.69;100.00;74452.03;5094565;28;20198;-78
2022/02/28 06:43:58;;;;;;;21.30;8.23;;;;;;;-145.69;100.00;74454.03;5095041;28;20225;-78
2022/02/28 06:46:26;;;;;;;25.83;9.17;;;;;;;-145.69;100.00;74444.06;5094985;28;20221;-78
2022/02/28 06:48:52;;;;;;;24.80;8.50;;;;;;;-145.69;100.00;74448.03;5094883;28;20213;-78
2022/02/28 06:51:19;;;;;;;22.80;8.03;;;;;;;-145.69;100.00;74448.03;5094770;28;20222;-78
2022/02/28 06:53:46;;;;;;;19.60;8.43;;;;;;;-145.69;100.00;74436.09;5094733;28;20209;-79
2022/02/28 06:56:14;;;;;;;18.90;8.43;;;;;;;-145.69;100.00;74432.13;5094509;28;20296;-78
2022/02/28 06:58:40;;;;;;;22.30;8.23;;;;;;;-145.69;100.00;74428.13;5094849;28;20200;-79
2022/02/28 07:01:09;;;;;;;25.27;8.57;;;;;;;-145.69;100.00;74416.19;5094724;28;20202;-78
2022/02/28 07:03:36;;;;;;;21.97;8.07;;;;;;;-145.69;100.00;74384.31;5094684;28;20229;-79
2022/02/28 07:06:04;;;;;;;23.77;9.43;;;;;;;-145.69;100.00;74350.47;5094390;28;20216;-78
2022/02/28 07:08:31;;;;;;;23.40;9.90;;;;;;;-145.69;100.00;74336.53;5101585;28;20193;-78
2022/02/28 07:10:57;;;;;;;24.37;11.57;;;;;;;-145.69;100.00;74316.63;5113844;28;20555;-79
2022/02/28 07:13:25;;;;;;;28.27;10.50;;;;;;;-145.69;100.00;74308.66;5114228;28;20197;-79
2022/02/28 07:15:54;;;;;;;22.43;9.47;;;;;;;-145.69;100.00;74296.69;5114733;28;20287;-79
2022/02/28 07:18:21;;;;;;;26.00;8.80;;;;;;;-145.69;100.00;74272.81;5114446;28;20271;-79
2022/02/28 07:20:47;;;;;;;20.87;8.83;;;;;;;-145.69;100.00;74272.81;5114659;28;20198;-79
2022/02/28 07:23:13;;;;;;;21.50;9.27;;;;;;;-145.69;100.00;74238.97;5114501;28;20200;-79
2022/02/28 07:25:40;;;;;;;18.33;8.07;;;;;;;-145.69;100.00;74252.91;5114860;28;20201;-79
2022/02/28 07:28:06;;;;;;;21.27;8.40;;;;;;;-145.69;100.00;74260.84;5114843;28;20541;-79
2022/02/28 07:30:35;;;;;;;21.53;8.57;;;;;;;-145.69;100.00;74270.81;5114473;28;20217;-79
2022/02/28 07:33:01;;;;;;;21.73;7.87;;;;;;;-145.69;100.00;74276.78;5114653;28;20201;-78
2022/02/28 07:35:28;;;;;;;20.77;8.50;;;;;;;-145.69;100.00;74284.75;5114637;28;20228;-78
2022/02/28 07:37:55;;;;;;;19.50;8.50;;;;;;;-145.69;100.00;74276.78;5112040;28;20668;-78
2022/02/28 07:40:21;;;;;;;23.13;8.87;;;;;;;-145.69;100.00;74248.91;5094357;28;20210;-78
2022/02/28 07:42:48;;;;;;;23.37;8.10;;;;;;;-145.69;100.00;74252.91;5094258;28;20202;-78
2022/02/28 07:45:14;;;;;;;21.40;8.20;;;;;;;-145.69;100.00;74242.94;5093960;28;20202;-78
2022/02/28 07:47:42;;;;;;;22.97;8.47;;;;;;;-145.69;100.00;74232.97;5094236;28;20201;-78
2022/02/28 07:50:09;;;;;;;22.55;10.00;;;;;;;-145.69;100.00;74231.00;5093465;28;20432;-79
2022/02/28 07:52:36;;;;;;;24.43;8.77;;;;;;;-145.69;100.00;74225.03;5093844;28;20202;-79
2022/02/28 07:55:04;;;;;;;20.73;8.43;;;;;;;-145.69;100.00;74199.13;5093990;28;20206;-79
2022/02/28 07:57:30;;;;;;;20.73;8.00;;;;;;;-145.69;100.00;74173.25;5093329;28;20654;-79
2022/02/28 07:59:57;;;;;;;18.13;8.30;;;;;;;-145.69;100.00;74147.34;5089834;28;20649;-79
2022/02/28 08:02:24;;;;;;;20.00;8.20;;;;;;;-145.69;100.00;74125.44;5111525;28;20225;-78
2022/02/28 08:04:52;;;;;;;15.03;7.83;;;;;;;-145.69;100.00;74097.56;5113841;28;20247;-78
2022/02/28 08:07:18;;;;;;;20.50;9.10;;;;;;;-145.69;100.00;74077.66;5114211;28;20209;-78
2022/02/28 08:09:45;;;;;;;24.00;8.10;;;;;;;-145.69;100.00;74055.75;5114105;28;20274;-78
2022/02/28 08:12:11;;;;;;;14.60;7.03;;;;;;;-145.69;98.44;74041.81;5114092;28;20234;-77
2022/02/28 08:14:39;;;;;;;18.07;7.03;;;;;;;-145.69;100.00;74021.91;5113911;28;20599;-79
2022/02/28 08:17:05;;;;;;;18.40;7.23;;;;;;;-145.69;100.00;74004.00;5113628;28;20205;-78
2022/02/28 08:19:32;;;;;;;16.90;7.70;;;;;;;-145.69;99.68;73982.09;5113886;28;20219;-77
2022/02/28 08:21:59;;;;;;;16.57;7.93;;;;;;;-145.69;97.75;73968.16;5113950;28;20680;-78
2022/02/28 08:24:26;;;;;;;13.63;7.53;;;;;;;-145.69;95.94;73942.25;5114027;28;20598;-78
2022/02/28 08:26:52;;;;;;;23.97;7.50;;;;;;;-145.69;91.83;73922.34;5113450;28;20202;-78
2022/02/28 08:29:19;;;;;;;17.20;6.80;;;;;;;-145.69;92.30;73894.47;5113919;28;20197;-78
2022/02/28 08:31:46;;;;;;;19.40;7.30;;;;;;;-145.69;90.87;73874.56;5108690;28;20221;-78
2022/02/28 08:34:12;;;;;;;14.63;7.00;;;;;;;-145.69;88.98;73848.69;5113278;28;20224;-78
2022/02/28 08:36:39;;;;;;;16.27;7.43;;;;;;;-145.69;85.93;73846.69;5113459;28;20724;-78
2022/02/28 08:39:07;;;;;;;16.13;6.53;;;;;;;-145.69;89.22;73822.81;5112978;28;20200;-78
2022/02/28 08:41:33;;;;;;;15.40;7.20;;;;;;;-145.69;85.13;73816.81;5113352;28;20365;-79
2022/02/28 08:44:00;;;;;;;12.93;5.93;;;;;;;-145.69;85.60;73818.81;5113713;28;20258;-79
2022/02/28 08:46:26;;;;;;;15.33;6.83;;;;;;;-145.69;81.69;73820.81;5113377;28;20213;-79
2022/02/28 08:48:53;;;;;;;12.73;5.70;;;;;;;-145.69;81.80;73820.81;5113456;28;20676;-79
2022/02/28 08:51:19;;;;;;;15.40;6.93;;;;;;;-145.69;80.09;73814.84;5113343;28;20699;-77
2022/02/28 08:53:46;;;;;;;14.03;6.63;;;;;;;-145.69;82.85;73804.88;5113572;28;20203;-80
2022/02/28 08:56:14;;;;;;;17.07;6.67;;;;;;;-145.69;85.53;73779.00;5113573;28;20196;-80
2022/02/28 08:58:40;;;;;;;16.30;5.80;;;;;;;-145.69;84.21;73773.03;5113601;28;20198;-80
2022/02/28 09:01:06;;;;;;;16.67;6.33;;;;;;;-145.69;83.28;73753.13;5111367;28;20197;-80
2022/02/28 09:03:33;;;;;;;12.80;6.00;;;;;;;-145.69;81.69;73751.13;5113382;28;20205;-80
2022/02/28 09:05:59;;;;;;;13.90;6.43;;;;;;;-145.69;82.10;73743.16;5113294;28;20682;-79
2022/02/28 09:08:26;;;;;;;13.63;6.07;;;;;;;-145.69;78.01;73723.25;5113292;28;20212;-80
2022/02/28 09:10:53;;;;;;;14.30;5.50;;;;;;;-145.69;82.07;73699.34;5110033;28;20217;-79
2022/02/28 09:13:20;;;;;;;14.33;5.80;;;;;;;-145.69;78.98;73691.38;5103123;28;20198;-79
2022/02/28 09:15:47;;;;;;;12.63;5.67;;;;;;;-145.69;76.12;73671.47;5092662;28;20251;-79
2022/02/28 09:18:13;;;;;;;13.90;5.97;;;;;;;-145.69;74.29;73667.50;5092679;28;20233;-79
2022/02/28 09:20:40;;;;;;;10.60;5.57;;;;;;;-145.69;76.78;73663.53;5092812;28;20653;-79
2022/02/28 09:23:07;;;;;;;12.73;5.70;;;;;;;-145.69;74.36;73645.59;5092944;28;20198;-79
2022/02/28 09:25:33;;;;;;;10.97;5.33;;;;;;;-145.69;75.18;73621.72;5092765;28;20202;-78
2022/02/28 09:28:00;;;;;;;12.07;5.50;;;;;;;-145.69;75.69;73615.72;5092763;28;20667;-78
2022/02/28 09:30:28;;;;;;;14.83;5.90;;;;;;;-145.69;74.12;73599.81;5092474;28;20195;-78
2022/02/28 09:32:56;;;;;;;11.97;5.73;;;;;;;-145.69;72.64;73577.91;5092868;28;20585;-82
2022/02/28 09:35:24;;;;;;;12.50;5.43;;;;;;;-145.69;72.01;73567.94;5092786;28;20199;-81
2022/02/28 09:37:55;;;;;;;13.40;6.00;;;;;;;-145.69;73.23;73560.00;5093528;28;20251;-83
2022/02/28 09:40:37;;;;;;;17.60;7.23;;;;;;;-145.69;73.09;73552.03;5105392;28;20533;-80
2022/02/28 09:43:10;;;;;;;13.50;5.83;;;;;;;-145.69;72.07;73552.03;5116824;28;20196;-80
2022/02/28 09:45:43;;;;;;;18.63;6.90;;;;;;;-145.69;72.69;73532.13;5116732;28;20217;-80
2022/02/28 09:48:12;;;;;;;17.17;6.47;;;;;;;-145.69;69.67;73530.13;5116499;28;20201;-80
2022/02/28 09:50:39;;;;;;;15.27;5.00;;;;;;;-145.69;65.50;73510.22;5116408;27;20202;-82
2022/02/28 09:53:08;;;;;;;9.57;4.53;;;;;;;-145.69;62.72;73472.38;5115879;28;20233;-81
2022/02/28 09:55:37;;;;;;;8.63;4.17;;;;;;;-145.69;58.82;73450.50;5116295;28;20580;-80
2022/02/28 09:58:07;;;;;;;9.27;4.20;;;;;;;-145.69;55.26;73436.56;5116419;27;20208;-81
2022/02/28 10:00:41;;;;;;;9.07;3.83;;;;;;;-145.69;55.12;73440.53;5108553;28;20205;-80
2022/02/28 10:03:09;;;;;;;13.20;5.20;;;;;;;-145.69;59.31;73424.59;5095843;28;20201;-80
2022/02/28 10:05:44;;;;;;;10.20;4.60;;;;;;;-145.69;59.94;73416.66;5095451;28;20237;-79
2022/02/28 10:08:19;;;;;;;12.90;4.77;;;;;;;-145.69;57.74;73408.69;5092889;28;20202;-80
2022/02/28 10:10:50;;;;;;;8.77;3.90;;;;;;;-145.69;56.25;73396.72;5095734;28;20262;-78
2022/02/28 10:13:26;;;;;;;12.67;4.97;;;;;;;-145.69;54.23;73396.72;5095137;28;20233;-80
2022/02/28 10:15:56;;;;;;;10.60;5.03;;;;;;;-145.69;53.90;73398.72;5095857;28;20233;-80
2022/02/28 10:18:25;;;;;;;10.10;4.57;;;;;;;-145.69;53.89;73396.72;5095377;28;20701;-80
2022/02/28 10:20:52;;;;;;;11.90;4.83;;;;;;;-145.69;56.99;73370.84;5095513;28;20202;-80
2022/02/28 10:23:18;;;;;;;8.40;4.50;;;;;;;-145.69;53.45;73364.88;5095761;28;20199;-78
2022/02/28 10:25:48;;;;;;;11.67;4.93;;;;;;;-145.69;55.27;73364.88;5091404;28;20203;-79
2022/02/28 10:28:20;;;;;;;10.50;5.23;;;;;;;-145.69;54.07;73368.88;5095084;28;20194;-76
2022/02/28 10:31:00;;;;;;;12.23;5.03;;;;;;;-145.69;54.64;73341.00;5095626;28;20190;-79
2022/02/28 10:33:31;;;;;;;13.60;4.63;;;;;;;-145.69;53.75;73325.06;5095283;28;20202;-78
2022/02/28 10:36:13;;;;;;;17.10;5.67;;;;;;;-145.69;54.86;73327.06;5095497;28;20221;-78
2022/02/28 10:38:44;;;;;;;10.20;5.20;;;;;;;-145.69;54.08;73327.06;5095177;28;20661;-79
2022/02/28 10:41:21;;;;;;;9.10;4.67;;;;;;;-145.69;53.84;73333.03;5095161;28;20260;-80
2022/02/28 10:43:51;;;;;;;10.07;4.37;;;;;;;-145.69;52.37;73327.06;5095162;28;20277;-78
2022/02/28 10:46:21;;;;;;;10.40;4.60;;;;;;;-145.69;52.28;73317.09;5094985;28;20205;-77
2022/02/28 10:49:01;;;;;;;11.00;5.43;;;;;;;-145.69;53.47;73301.19;5094512;28;20202;-79
2022/02/28 10:51:28;;;;;;;10.33;4.80;;;;;;;-145.69;52.71;73295.19;5094770;28;20221;-79
2022/02/28 10:54:09;;;;;;;8.77;4.50;;;;;;;-145.69;49.08;73253.41;5094828;28;20194;-79
2022/02/28 10:56:56;;;;;;;10.80;4.77;;;;;;;-145.69;48.05;73225.53;5094827;28;20252;-79
2022/02/28 10:59:24;;;;;;;10.77;4.50;;;;;;;-145.69;48.08;73237.47;5095149;28;20197;-80
2022/02/28 11:01:53;;;;;;;12.13;4.67;;;;;;;-145.69;48.05;73251.41;5114775;28;20198;-80
2022/02/28 11:04:37;;;;;;;9.70;4.23;;;;;;;-145.69;48.81;73233.50;5105474;28;20190;-80
2022/02/28 11:07:06;;;;;;;8.57;4.10;;;;;;;-145.69;48.92;73241.44;5094963;28;20201;-80
2022/02/28 11:09:35;;;;;;;9.13;4.30;;;;;;;-145.69;47.87;73197.66;5094640;28;20205;-80